createdAt,value
2022-12-14T00:01:38.444Z,-3.00
2022-12-14T00:04:05.512Z,-3.00
2022-12-14T00:06:33.999Z,-2.90
2022-12-14T00:09:03.397Z,-2.90
2022-12-14T00:11:30.513Z,-2.90
2022-12-14T00:14:00.033Z,-3.00
2022-12-14T00:16:29.952Z,-3.00
2022-12-14T00:18:58.865Z,-3.00
2022-12-14T00:21:26.984Z,-3.00
2022-12-14T00:23:54.868Z,-3.00
2022-12-14T00:26:27.872Z,-3.00
2022-12-14T00:28:56.119Z,-3.00
2022-12-14T00:31:24.564Z,-3.00
2022-12-14T00:33:52.666Z,-3.00
2022-12-14T00:36:20.481Z,-3.00
2022-12-14T00:38:47.665Z,-3.00
2022-12-14T00:41:14.632Z,-3.00
2022-12-14T00:43:41.967Z,-3.00
2022-12-14T00:46:09.157Z,-3.00
2022-12-14T00:48:36.286Z,-3.00
2022-12-14T00:51:04.400Z,-3.00
2022-12-14T00:53:31.582Z,-3.10
2022-12-14T00:56:06.423Z,-3.10
2022-12-14T00:58:33.872Z,-3.10
2022-12-14T01:01:12.733Z,-3.10
2022-12-14T01:03:40.277Z,-3.10
2022-12-14T01:06:14.769Z,-3.10
2022-12-14T01:08:41.813Z,-3.10
2022-12-14T01:11:10.761Z,-3.10
2022-12-14T01:13:38.923Z,-3.20
2022-12-14T01:16:13.274Z,-3.20
2022-12-14T01:18:42.616Z,-3.20
2022-12-14T01:21:13.923Z,-3.20
2022-12-14T01:23:41.504Z,-3.20
2022-12-14T01:26:09.131Z,-3.20
2022-12-14T01:28:36.478Z,-3.20
2022-12-14T01:31:14.515Z,-3.20
2022-12-14T01:33:41.741Z,-3.20
2022-12-14T01:36:14.862Z,-3.20
2022-12-14T01:38:41.927Z,-3.10
2022-12-14T01:41:17.233Z,-3.10
2022-12-14T01:43:56.503Z,-3.00
2022-12-14T01:46:49.720Z,-3.00
2022-12-14T01:49:39.513Z,-3.00
2022-12-14T01:52:18.234Z,-2.90
2022-12-14T01:54:56.632Z,-2.90
2022-12-14T01:57:32.945Z,-2.90
2022-12-14T02:00:06.982Z,-2.90
2022-12-14T02:02:38.218Z,-2.90
2022-12-14T02:05:06.893Z,-2.90
2022-12-14T02:07:34.545Z,-2.90
2022-12-14T02:10:04.565Z,-2.80
2022-12-14T02:12:41.913Z,-2.80
2022-12-14T02:15:09.777Z,-2.80
2022-12-14T02:17:36.789Z,-2.70
2022-12-14T02:20:04.448Z,-2.60
2022-12-14T02:22:50.121Z,-2.60
2022-12-14T02:25:54.476Z,-2.50
2022-12-14T02:29:05.353Z,-2.50
2022-12-14T02:31:49.826Z,-2.40
2022-12-14T02:34:57.834Z,-2.40
2022-12-14T02:37:42.719Z,-2.30
2022-12-14T02:40:34.764Z,-2.30
2022-12-14T02:43:27.701Z,-2.20
2022-12-14T02:45:57.376Z,-2.20
2022-12-14T02:48:36.705Z,-2.10
2022-12-14T02:51:11.788Z,-2.10
2022-12-14T02:53:54.558Z,-2.10
2022-12-14T02:56:29.762Z,-2.10
2022-12-14T02:58:58.017Z,-2.00
2022-12-14T03:01:28.888Z,-2.00
2022-12-14T03:03:56.164Z,-2.00
2022-12-14T03:06:28.109Z,-2.00
2022-12-14T03:09:07.945Z,-2.00
2022-12-14T03:11:51.508Z,-1.90
2022-12-14T03:14:25.479Z,-1.90
2022-12-14T03:16:53.798Z,-1.90
2022-12-14T03:19:35.612Z,-1.90
2022-12-14T03:22:08.580Z,-1.90
2022-12-14T03:24:43.508Z,-1.90
2022-12-14T03:27:36.178Z,-1.80
2022-12-14T03:30:18.411Z,-1.80
2022-12-14T03:32:59.387Z,-1.90
2022-12-14T03:35:39.496Z,-1.80
2022-12-14T03:38:20.846Z,-1.80
2022-12-14T03:41:17.314Z,-1.80
2022-12-14T03:43:58.122Z,-1.80
2022-12-14T03:46:53.100Z,-1.80
2022-12-14T03:49:44.299Z,-1.80
2022-12-14T03:52:44.133Z,-1.80
2022-12-14T03:55:32.278Z,-1.70
2022-12-14T03:58:28.828Z,-1.70
2022-12-14T04:01:11.099Z,-1.70
2022-12-14T04:03:40.899Z,-1.70
2022-12-14T04:06:45.587Z,-1.70
2022-12-14T04:09:46.017Z,-1.70
2022-12-14T04:13:03.804Z,-1.60
2022-12-14T04:15:54.511Z,-1.60
2022-12-14T04:18:47.643Z,-1.60
2022-12-14T04:21:41.526Z,-1.60
2022-12-14T04:24:40.126Z,-1.60
2022-12-14T04:27:15.556Z,-1.60
2022-12-14T04:29:56.541Z,-1.60
2022-12-14T04:32:39.959Z,-1.50
2022-12-14T04:35:13.990Z,-1.50
2022-12-14T04:37:45.629Z,-1.50
2022-12-14T04:40:24.230Z,-1.40
2022-12-14T04:43:04.981Z,-1.40
2022-12-14T04:45:48.969Z,-1.40
2022-12-14T04:48:23.258Z,-1.30
2022-12-14T04:50:58.477Z,-1.30
2022-12-14T04:53:29.403Z,-1.30
2022-12-14T04:56:09.337Z,-1.30
2022-12-14T04:58:37.429Z,-1.20
2022-12-14T05:01:26.047Z,-1.20
2022-12-14T05:04:12.301Z,-1.20
2022-12-14T05:06:45.982Z,-1.10
2022-12-14T05:09:33.432Z,-1.10
2022-12-14T05:12:28.618Z,-1.10
2022-12-14T05:15:21.852Z,-1.10
2022-12-14T05:17:48.962Z,-1.10
2022-12-14T05:20:23.010Z,-1.00
2022-12-14T05:22:50.180Z,-1.10
2022-12-14T05:25:17.636Z,-1.10
2022-12-14T05:27:44.660Z,-1.10
2022-12-14T05:30:12.096Z,-1.10
2022-12-14T05:32:40.020Z,-1.00
2022-12-14T05:35:09.018Z,-1.00
2022-12-14T05:37:35.992Z,-1.00
2022-12-14T05:40:02.981Z,-1.00
2022-12-14T05:42:30.100Z,-1.00
2022-12-14T05:44:57.089Z,-1.00
2022-12-14T05:47:24.490Z,-1.00
2022-12-14T05:49:51.676Z,-1.00
2022-12-14T05:52:19.199Z,-1.00
2022-12-14T05:54:46.453Z,-0.90
2022-12-14T05:57:13.401Z,-0.90
2022-12-14T05:59:40.372Z,-0.90
2022-12-14T06:02:07.693Z,-0.90
2022-12-14T06:04:35.347Z,-0.80
2022-12-14T06:07:02.393Z,-0.80
2022-12-14T06:09:29.360Z,-0.80
2022-12-14T06:11:56.396Z,-0.70
2022-12-14T06:14:24.589Z,-0.70
2022-12-14T06:16:51.544Z,-0.70
2022-12-14T06:19:19.252Z,-0.70
2022-12-14T06:21:46.374Z,-0.60
2022-12-14T06:24:14.073Z,-0.60
2022-12-14T06:26:41.312Z,-0.60
2022-12-14T06:29:13.579Z,-0.60
2022-12-14T06:31:40.604Z,-0.50
2022-12-14T06:34:09.332Z,-0.50
2022-12-14T06:36:39.018Z,-0.50
2022-12-14T06:39:10.765Z,-0.50
2022-12-14T06:41:37.980Z,-0.40
2022-12-14T06:44:08.603Z,-0.40
2022-12-14T06:46:36.816Z,-0.50
2022-12-14T06:49:06.092Z,-0.40
2022-12-14T06:51:38.274Z,-0.40
2022-12-14T06:54:05.271Z,-0.40
2022-12-14T06:56:32.197Z,-0.40
2022-12-14T06:58:59.320Z,-0.40
2022-12-14T07:01:26.581Z,-0.40
2022-12-14T07:03:56.154Z,-0.40
2022-12-14T07:06:24.989Z,-0.30
2022-12-14T07:08:57.957Z,-0.30
2022-12-14T07:11:26.476Z,-0.30
2022-12-14T07:13:54.741Z,-0.30
2022-12-14T07:16:26.266Z,-0.30
2022-12-14T07:18:55.399Z,-0.30
2022-12-14T07:21:23.165Z,-0.30
2022-12-14T07:23:52.571Z,-0.30
2022-12-14T07:26:25.988Z,-0.30
2022-12-14T07:28:53.855Z,-0.20
2022-12-14T07:31:26.459Z,-0.20
2022-12-14T07:33:56.012Z,-0.20
2022-12-14T07:36:25.164Z,-0.20
2022-12-14T07:38:52.682Z,-0.20
2022-12-14T07:41:23.477Z,-0.20
2022-12-14T07:43:52.321Z,-0.20
2022-12-14T07:46:22.322Z,-0.20
2022-12-14T07:48:52.101Z,-0.10
2022-12-14T07:51:21.640Z,-0.10
2022-12-14T07:53:50.201Z,-0.10
2022-12-14T07:56:26.039Z,-0.10
2022-12-14T07:58:56.352Z,-0.10
2022-12-14T08:01:26.841Z,-0.10
2022-12-14T08:03:56.386Z,0.00
2022-12-14T08:06:27.102Z,0.00
2022-12-14T08:08:54.794Z,0.00
2022-12-14T08:11:23.003Z,0.00
2022-12-14T08:14:01.786Z,-0.10
2022-12-14T08:16:29.583Z,-0.10
2022-12-14T08:18:58.670Z,0.00
2022-12-14T08:21:26.784Z,0.00
2022-12-14T08:23:55.023Z,0.00
2022-12-14T08:26:22.331Z,0.00
2022-12-14T08:28:49.354Z,0.00
2022-12-14T08:31:19.166Z,0.00
2022-12-14T08:33:47.312Z,0.10
2022-12-14T08:36:17.319Z,0.10
2022-12-14T08:38:44.893Z,0.10
2022-12-14T08:41:15.365Z,0.10
2022-12-14T08:43:43.789Z,0.10
2022-12-14T08:46:11.344Z,0.10
2022-12-14T08:48:38.391Z,0.10
2022-12-14T08:51:08.175Z,0.10
2022-12-14T08:53:36.710Z,0.20
2022-12-14T08:56:12.837Z,0.30
2022-12-14T08:58:40.986Z,0.30
2022-12-14T09:01:27.024Z,0.20
2022-12-14T09:04:05.163Z,0.20
2022-12-14T09:06:34.930Z,0.30
2022-12-14T09:09:01.918Z,0.30
2022-12-14T09:11:29.478Z,0.30
2022-12-14T09:13:57.024Z,0.30
2022-12-14T09:16:28.832Z,0.30
2022-12-14T09:18:55.988Z,0.30
2022-12-14T09:21:24.170Z,0.30
2022-12-14T09:23:57.373Z,0.40
2022-12-14T09:26:27.207Z,0.40
2022-12-14T09:28:56.509Z,0.40
2022-12-14T09:31:26.162Z,0.50
2022-12-14T09:33:55.104Z,0.50
2022-12-14T09:36:27.474Z,0.50
2022-12-14T09:38:56.966Z,0.50
2022-12-14T09:41:36.471Z,0.50
2022-12-14T09:44:19.856Z,0.60
2022-12-14T09:46:47.634Z,0.60
2022-12-14T09:49:31.072Z,0.60
2022-12-14T09:52:02.049Z,0.60
2022-12-14T09:54:33.584Z,0.60
2022-12-14T09:57:29.481Z,0.70
2022-12-14T09:59:56.893Z,0.70
2022-12-14T10:02:51.400Z,0.70
2022-12-14T10:05:21.378Z,0.70
2022-12-14T10:08:19.308Z,0.70
2022-12-14T10:10:56.777Z,0.70
2022-12-14T10:13:42.427Z,0.70
2022-12-14T10:16:12.120Z,0.80
2022-12-14T10:19:03.506Z,0.80
2022-12-14T10:21:46.533Z,0.80
2022-12-14T10:24:27.541Z,0.90
2022-12-14T10:26:55.903Z,0.90
2022-12-14T10:29:25.972Z,0.90
2022-12-14T10:32:05.276Z,1.00
2022-12-14T10:34:34.925Z,1.00
2022-12-14T10:37:20.378Z,1.00
2022-12-14T10:40:40.803Z,1.00
2022-12-14T10:43:31.228Z,1.00
2022-12-14T10:46:24.318Z,1.00
2022-12-14T10:49:22.177Z,1.00
2022-12-14T10:52:02.517Z,1.00
2022-12-14T10:55:03.405Z,1.10
2022-12-14T10:57:33.531Z,1.20
2022-12-14T11:00:23.930Z,1.20
2022-12-14T11:02:59.157Z,1.20
2022-12-14T11:05:44.068Z,1.20
2022-12-14T11:08:43.405Z,1.20
2022-12-14T11:11:46.711Z,1.20
2022-12-14T11:14:19.577Z,1.20
2022-12-14T11:16:59.313Z,1.10
2022-12-14T11:19:28.277Z,1.00
2022-12-14T11:22:22.288Z,1.10
2022-12-14T11:24:50.482Z,1.10
2022-12-14T11:27:24.664Z,1.10
2022-12-14T11:29:59.895Z,1.20
2022-12-14T11:32:36.411Z,1.20
2022-12-14T11:35:07.429Z,1.20
2022-12-14T11:37:38.159Z,1.20
2022-12-14T11:40:30.207Z,1.20
2022-12-14T11:43:07.679Z,1.20
2022-12-14T11:45:47.510Z,1.20
2022-12-14T11:48:47.884Z,1.20
2022-12-14T11:51:31.042Z,1.20
2022-12-14T11:57:22.190Z,1.20
2022-12-14T12:00:33.885Z,1.30
2022-12-14T12:03:07.001Z,1.20
2022-12-14T12:05:45.672Z,1.20
2022-12-14T12:08:33.032Z,1.20
2022-12-14T12:11:17.638Z,1.30
2022-12-14T12:14:15.900Z,1.30
2022-12-14T12:17:04.470Z,1.30
2022-12-14T12:19:50.007Z,1.30
2022-12-14T12:22:33.936Z,1.30
2022-12-14T12:25:29.723Z,1.40
2022-12-14T12:28:48.110Z,1.40
2022-12-14T12:31:44.567Z,1.50
2022-12-14T12:34:33.351Z,1.50
2022-12-14T12:37:45.795Z,1.40
2022-12-14T12:41:07.334Z,1.30
2022-12-14T12:44:06.945Z,1.30
2022-12-14T12:49:56.050Z,1.30
2022-12-14T12:52:48.411Z,1.30
2022-12-14T12:55:25.936Z,1.30
2022-12-14T12:58:06.066Z,1.30
2022-12-14T13:00:33.961Z,1.30
2022-12-14T13:03:23.308Z,1.30
2022-12-14T13:05:53.491Z,1.30
2022-12-14T13:08:30.309Z,1.30
2022-12-14T13:11:25.613Z,1.30
2022-12-14T13:13:59.179Z,1.30
2022-12-14T13:16:39.446Z,1.30
2022-12-14T13:19:48.805Z,1.30
2022-12-14T13:22:15.354Z,1.30
2022-12-14T13:24:59.247Z,1.30
2022-12-14T13:27:38.119Z,1.30
2022-12-14T13:30:23.084Z,1.30
2022-12-14T13:33:17.384Z,1.30
2022-12-14T13:36:07.085Z,1.40
2022-12-14T13:38:52.145Z,1.40
2022-12-14T13:41:22.191Z,1.50
2022-12-14T13:44:10.172Z,1.50
2022-12-14T13:46:37.476Z,1.40
2022-12-14T13:49:09.428Z,1.40
2022-12-14T13:51:38.663Z,1.30
2022-12-14T13:54:30.212Z,1.30
2022-12-14T13:57:21.379Z,1.30
2022-12-14T13:59:53.746Z,1.30
2022-12-14T14:02:29.987Z,1.20
2022-12-14T14:05:15.455Z,1.20
2022-12-14T14:08:26.341Z,1.30
2022-12-14T14:11:13.900Z,1.30
2022-12-14T14:13:45.197Z,1.30
2022-12-14T14:16:28.519Z,1.20
2022-12-14T14:19:03.069Z,1.20
2022-12-14T14:21:58.876Z,1.20
2022-12-14T14:24:28.603Z,1.20
2022-12-14T14:27:11.745Z,1.20
2022-12-14T14:29:49.403Z,1.10
2022-12-14T14:32:42.201Z,1.10
2022-12-14T14:35:24.553Z,1.10
2022-12-14T14:38:02.170Z,1.10
2022-12-14T14:41:06.528Z,1.00
2022-12-14T14:43:25.579Z,1.00
2022-12-14T14:45:55.627Z,1.00
2022-12-14T14:48:36.839Z,1.00
2022-12-14T14:51:20.725Z,1.00
2022-12-14T14:53:50.510Z,1.00
2022-12-14T14:56:29.982Z,1.00
2022-12-14T14:59:18.018Z,1.00
2022-12-14T15:02:01.020Z,1.00
2022-12-14T15:04:57.075Z,1.00
2022-12-14T15:07:30.206Z,1.10
2022-12-14T15:10:22.702Z,1.10
2022-12-14T15:12:57.321Z,1.10
2022-12-14T15:15:32.727Z,1.10
2022-12-14T15:18:15.416Z,1.10
2022-12-14T15:20:54.931Z,1.10
2022-12-14T15:23:23.005Z,1.10
2022-12-14T15:26:02.277Z,1.10
2022-12-14T15:28:29.817Z,1.10
2022-12-14T15:30:58.691Z,1.10
2022-12-14T15:33:34.337Z,1.00
2022-12-14T15:36:14.178Z,1.00
2022-12-14T15:38:52.910Z,1.10
2022-12-14T15:41:21.268Z,1.10
2022-12-14T15:43:53.758Z,1.00
2022-12-14T15:46:34.481Z,1.10
2022-12-14T15:49:09.055Z,1.10
2022-12-14T15:51:42.715Z,1.10
2022-12-14T15:54:19.912Z,1.10
2022-12-14T15:56:58.832Z,1.10
2022-12-14T15:59:31.578Z,1.10
2022-12-14T16:02:07.564Z,1.10
2022-12-14T16:04:37.149Z,1.10
2022-12-14T16:07:18.303Z,1.10
2022-12-14T16:09:55.316Z,1.10
2022-12-14T16:12:44.273Z,1.10
2022-12-14T16:15:25.896Z,1.10
2022-12-14T16:18:01.506Z,1.10
2022-12-14T16:20:32.677Z,1.10
2022-12-14T16:23:14.819Z,1.10
2022-12-14T16:26:01.378Z,1.10
2022-12-14T16:28:34.649Z,1.20
2022-12-14T16:31:18.121Z,1.20
2022-12-14T16:33:45.514Z,1.20
2022-12-14T16:36:25.921Z,1.20
2022-12-14T16:39:23.331Z,1.20
2022-12-14T16:41:58.590Z,1.20
2022-12-14T16:44:34.386Z,1.20
2022-12-14T16:47:01.521Z,1.20
2022-12-14T16:49:34.711Z,1.20
2022-12-14T16:52:17.386Z,1.20
2022-12-14T16:55:04.330Z,1.20
2022-12-14T16:57:31.437Z,1.20
2022-12-14T17:00:04.643Z,1.20
2022-12-14T17:02:40.907Z,1.20
2022-12-14T17:05:20.668Z,1.20
2022-12-14T17:07:47.771Z,1.20
2022-12-14T17:10:30.689Z,1.20
2022-12-14T17:13:04.219Z,1.10
2022-12-14T17:15:34.566Z,1.10
2022-12-14T17:18:05.274Z,1.10
2022-12-14T17:20:40.077Z,1.10
2022-12-14T17:23:10.410Z,1.20
2022-12-14T17:25:38.145Z,1.20
2022-12-14T17:28:23.313Z,1.20
2022-12-14T17:30:52.302Z,1.20
2022-12-14T17:33:20.054Z,1.20
2022-12-14T17:35:47.354Z,1.20
2022-12-14T17:38:20.014Z,1.20
2022-12-14T17:40:50.256Z,1.20
2022-12-14T17:43:26.722Z,1.30
2022-12-14T17:45:55.601Z,1.30
2022-12-14T17:48:23.220Z,1.40
2022-12-14T17:50:52.049Z,1.40
2022-12-14T17:53:26.461Z,1.40
2022-12-14T17:55:54.616Z,1.40
2022-12-14T17:58:25.494Z,1.50
2022-12-14T18:01:03.532Z,1.50
2022-12-14T18:03:36.662Z,1.50
2022-12-14T18:06:05.133Z,1.60
2022-12-14T18:08:33.080Z,1.60
2022-12-14T18:11:13.348Z,1.60
2022-12-14T18:13:42.552Z,1.60
2022-12-14T18:16:16.215Z,1.60
2022-12-14T18:18:45.961Z,1.60
2022-12-14T18:21:18.592Z,1.50
2022-12-14T18:23:47.738Z,1.50
2022-12-14T18:26:23.198Z,1.60
2022-12-14T18:28:54.838Z,1.60
2022-12-14T18:31:36.657Z,1.60
2022-12-14T18:34:05.474Z,1.60
2022-12-14T18:36:33.926Z,1.60
2022-12-14T18:39:01.902Z,1.60
2022-12-14T18:41:35.037Z,1.70
2022-12-14T18:44:03.334Z,1.70
2022-12-14T18:46:31.246Z,1.70
2022-12-14T18:48:58.881Z,1.70
2022-12-14T18:51:27.476Z,1.80
2022-12-14T18:53:59.216Z,1.80
2022-12-14T18:56:28.311Z,1.80
2022-12-14T18:58:56.815Z,1.90
2022-12-14T19:01:26.249Z,1.90
2022-12-14T19:03:54.886Z,1.90
2022-12-14T19:09:15.656Z,1.90
2022-12-14T19:11:44.921Z,1.90
2022-12-14T19:14:13.263Z,2.00
2022-12-14T19:16:41.592Z,2.00
2022-12-14T19:19:09.736Z,2.00
2022-12-14T19:21:37.824Z,2.00
2022-12-14T19:24:09.246Z,2.00
2022-12-14T19:26:39.652Z,2.00
2022-12-14T19:29:07.978Z,2.00
2022-12-14T19:31:35.964Z,1.90
2022-12-14T19:34:07.544Z,1.90
2022-12-14T19:36:37.436Z,2.00
2022-12-14T19:39:06.026Z,2.00
2022-12-14T19:41:34.264Z,2.00
2022-12-14T19:44:05.164Z,2.00
2022-12-14T19:46:33.604Z,2.00
2022-12-14T19:49:04.262Z,2.00
2022-12-14T19:51:32.330Z,2.00
2022-12-14T19:54:03.588Z,2.00
2022-12-14T19:56:32.628Z,2.00
2022-12-14T19:59:06.775Z,1.90
2022-12-14T20:01:41.948Z,1.90
2022-12-14T20:04:12.935Z,1.90
2022-12-14T20:06:41.217Z,1.90
2022-12-14T20:09:09.336Z,1.90
2022-12-14T20:11:37.588Z,1.90
2022-12-14T20:14:05.936Z,2.00
2022-12-14T20:16:34.396Z,1.90
2022-12-14T20:19:02.537Z,2.00
2022-12-14T20:21:34.835Z,2.00
2022-12-14T20:24:03.366Z,2.00
2022-12-14T20:26:33.394Z,2.00
2022-12-14T20:29:02.109Z,2.00
2022-12-14T20:31:30.309Z,2.00
2022-12-14T20:34:02.536Z,2.10
2022-12-14T20:36:32.128Z,2.00
2022-12-14T20:39:02.109Z,2.10
2022-12-14T20:41:32.527Z,2.10
2022-12-14T20:44:05.483Z,2.10
2022-12-14T20:46:38.940Z,2.10
2022-12-14T20:49:18.798Z,2.10
2022-12-14T20:51:48.502Z,2.10
2022-12-14T20:54:19.147Z,2.20
2022-12-14T20:56:49.419Z,2.20
2022-12-14T20:59:18.215Z,2.20
2022-12-14T21:01:51.851Z,2.10
2022-12-14T21:04:22.958Z,2.10
2022-12-14T21:06:50.945Z,2.20
2022-12-14T21:09:18.335Z,2.20
2022-12-14T21:12:06.966Z,2.10
2022-12-14T21:14:37.285Z,2.10
2022-12-14T21:17:06.396Z,2.10
2022-12-14T21:19:36.231Z,2.10
2022-12-14T21:22:05.984Z,2.20
2022-12-14T21:27:26.811Z,2.20
2022-12-14T21:29:55.436Z,2.20
2022-12-14T21:32:23.016Z,2.20
2022-12-14T21:34:50.634Z,2.20
2022-12-14T21:37:18.105Z,2.20
2022-12-14T21:39:52.248Z,2.20
2022-12-14T21:42:26.252Z,2.20
2022-12-14T21:44:54.503Z,2.30
2022-12-14T21:47:27.290Z,2.30
2022-12-14T21:49:55.272Z,2.30
2022-12-14T21:52:24.948Z,2.40
2022-12-14T21:54:51.958Z,2.40
2022-12-14T21:57:42.298Z,2.40
2022-12-14T22:00:10.621Z,2.40
2022-12-14T22:02:37.831Z,2.40
2022-12-14T22:05:05.381Z,2.40
2022-12-14T22:07:34.457Z,2.40
2022-12-14T22:10:01.501Z,2.40
2022-12-14T22:12:28.704Z,2.40
2022-12-14T22:14:55.816Z,2.40
2022-12-14T22:17:22.814Z,2.40
2022-12-14T22:19:51.080Z,2.40
2022-12-14T22:22:18.315Z,2.40
2022-12-14T22:24:48.835Z,2.40
2022-12-14T22:27:15.916Z,2.40
2022-12-14T22:29:42.883Z,2.40
2022-12-14T22:32:11.951Z,2.40
2022-12-14T22:34:39.078Z,2.40
2022-12-14T22:37:06.378Z,2.40
2022-12-14T22:39:33.396Z,2.40
2022-12-14T22:42:00.432Z,2.40
2022-12-14T22:44:27.524Z,2.40
2022-12-14T22:46:54.635Z,2.40
2022-12-14T22:49:21.675Z,2.40
2022-12-14T22:51:48.715Z,2.40
2022-12-14T22:54:27.569Z,2.40
2022-12-14T22:57:07.919Z,2.40
2022-12-14T22:59:42.016Z,2.40
2022-12-14T23:02:09.424Z,2.40
2022-12-14T23:04:38.149Z,2.40
2022-12-14T23:07:05.955Z,2.40
2022-12-14T23:09:52.528Z,2.40
2022-12-14T23:12:38.860Z,2.30
2022-12-14T23:15:25.055Z,2.30
2022-12-14T23:18:19.027Z,2.30
2022-12-14T23:21:04.615Z,2.30
2022-12-14T23:23:50.395Z,2.30
2022-12-14T23:26:36.255Z,2.30
2022-12-14T23:29:21.982Z,2.40
2022-12-14T23:32:07.845Z,2.40
2022-12-14T23:34:53.496Z,2.40
2022-12-14T23:37:38.939Z,2.40
2022-12-14T23:40:25.204Z,2.40
2022-12-14T23:43:10.705Z,2.40
2022-12-14T23:45:56.505Z,2.40
2022-12-14T23:48:42.124Z,2.40
2022-12-14T23:51:27.697Z,2.40
2022-12-14T23:54:13.398Z,2.40
2022-12-14T23:56:58.979Z,2.50
2022-12-14T23:59:44.347Z,2.40
